createdAt,value
2018-01-16T00:01:13.895Z,29.80
2018-01-16T00:03:41.441Z,36.03
2018-01-16T00:06:08.994Z,33.50
2018-01-16T00:08:36.577Z,35.83
2018-01-16T00:11:04.402Z,33.42
2018-01-16T00:13:31.950Z,37.53
2018-01-16T00:15:59.490Z,35.63
2018-01-16T00:18:27.146Z,33.75
2018-01-16T00:20:54.738Z,35.05
2018-01-16T00:23:22.366Z,34.72
2018-01-16T00:25:50.111Z,32.28
2018-01-16T00:28:17.662Z,34.42
2018-01-16T00:30:45.213Z,37.75
2018-01-16T00:33:12.793Z,37.22
2018-01-16T00:35:40.422Z,36.50
2018-01-16T00:38:08.001Z,33.05
2018-01-16T00:40:35.552Z,31.35
2018-01-16T00:43:03.108Z,35.25
2018-01-16T00:45:30.813Z,31.75
2018-01-16T00:47:58.396Z,36.42
2018-01-16T00:50:26.145Z,30.98
2018-01-16T00:52:53.718Z,40.25
2018-01-16T00:55:21.265Z,31.80
2018-01-16T00:57:48.993Z,33.70
2018-01-16T01:00:16.657Z,34.28
2018-01-16T01:02:44.282Z,35.22
2018-01-16T01:05:12.094Z,35.72
2018-01-16T01:07:39.654Z,33.47
2018-01-16T01:10:07.431Z,33.45
2018-01-16T01:12:35.147Z,37.05
2018-01-16T01:15:02.734Z,34.78
2018-01-16T01:17:30.274Z,36.75
2018-01-16T01:19:57.904Z,34.67
2018-01-16T01:22:25.622Z,35.63
2018-01-16T01:24:53.231Z,37.53
2018-01-16T01:27:20.792Z,33.63
2018-01-16T01:29:48.331Z,32.42
2018-01-16T01:32:16.000Z,30.98
2018-01-16T01:34:43.539Z,38.47
2018-01-16T01:37:11.135Z,35.25
2018-01-16T01:39:38.679Z,32.10
2018-01-16T01:42:06.222Z,33.58
2018-01-16T01:44:33.878Z,33.03
2018-01-16T01:47:01.414Z,35.58
2018-01-16T01:49:28.982Z,33.20
2018-01-16T01:51:56.530Z,32.85
2018-01-16T01:54:24.118Z,35.50
2018-01-16T01:56:51.826Z,37.08
2018-01-16T01:59:19.386Z,38.55
2018-01-16T02:01:46.955Z,32.55
2018-01-16T02:04:14.497Z,37.30
2018-01-16T02:06:42.137Z,39.25
2018-01-16T02:09:09.682Z,33.45
2018-01-16T02:11:37.225Z,38.33
2018-01-16T02:14:04.882Z,32.85
2018-01-16T02:16:32.514Z,34.97
2018-01-16T02:19:00.327Z,35.50
2018-01-16T02:21:28.145Z,35.90
2018-01-16T02:23:55.738Z,33.28
2018-01-16T02:26:23.480Z,42.10
2018-01-16T02:28:51.024Z,34.90
2018-01-16T02:31:18.817Z,39.53
2018-01-16T02:33:46.543Z,36.50
2018-01-16T02:36:14.090Z,37.75
2018-01-16T02:38:41.640Z,32.00
2018-01-16T02:41:09.190Z,30.88
2018-01-16T02:43:36.789Z,33.22
2018-01-16T02:46:04.530Z,37.80
2018-01-16T02:48:32.067Z,32.50
2018-01-16T02:50:59.827Z,33.83
2018-01-16T02:53:27.373Z,34.65
2018-01-16T02:55:54.980Z,35.40
2018-01-16T02:58:22.715Z,36.42
2018-01-16T03:00:50.262Z,34.60
2018-01-16T03:03:17.806Z,38.90
2018-01-16T03:05:45.468Z,41.90
2018-01-16T03:08:13.058Z,34.05
2018-01-16T03:10:40.598Z,33.53
2018-01-16T03:13:08.223Z,38.53
2018-01-16T03:15:35.790Z,37.13
2018-01-16T03:18:03.557Z,36.75
2018-01-16T03:20:31.150Z,38.70
2018-01-16T03:22:58.746Z,36.15
2018-01-16T03:25:26.290Z,42.03
2018-01-16T03:27:53.866Z,41.17
2018-01-16T03:30:21.422Z,40.22
2018-01-16T03:32:49.166Z,37.88
2018-01-16T03:35:16.701Z,38.63
2018-01-16T03:37:44.498Z,46.08
2018-01-16T03:40:12.070Z,41.30
2018-01-16T03:42:39.681Z,42.08
2018-01-16T03:45:07.273Z,43.90
2018-01-16T03:47:34.821Z,40.80
2018-01-16T03:50:02.371Z,38.53
2018-01-16T03:52:29.916Z,42.05
2018-01-16T03:54:57.469Z,40.63
2018-01-16T03:57:25.121Z,46.95
2018-01-16T03:59:52.668Z,43.35
2018-01-16T04:02:20.222Z,43.58
2018-01-16T04:04:47.898Z,43.28
2018-01-16T04:07:15.518Z,49.80
2018-01-16T04:09:43.130Z,52.00
2018-01-16T04:12:10.749Z,57.65
2018-01-16T04:14:38.298Z,39.85
2018-01-16T04:17:06.082Z,44.83
2018-01-16T04:19:33.657Z,42.47
2018-01-16T04:22:01.247Z,41.10
2018-01-16T04:24:28.794Z,43.08
2018-01-16T04:26:56.415Z,36.65
2018-01-16T04:29:24.141Z,36.65
2018-01-16T04:31:51.850Z,41.10
2018-01-16T04:34:19.655Z,39.50
2018-01-16T04:36:47.194Z,45.60
2018-01-16T04:39:14.946Z,41.65
2018-01-16T04:41:42.497Z,36.97
2018-01-16T04:44:10.185Z,39.90
2018-01-16T04:46:37.797Z,40.97
2018-01-16T04:49:05.349Z,38.88
2018-01-16T04:51:32.939Z,39.10
2018-01-16T04:54:00.486Z,43.22
2018-01-16T04:56:28.061Z,42.08
2018-01-16T04:58:55.654Z,46.70
2018-01-16T05:01:23.194Z,41.65
2018-01-16T05:03:50.730Z,43.47
2018-01-16T05:06:18.302Z,41.00
2018-01-16T05:08:45.845Z,39.13
2018-01-16T05:11:13.434Z,44.15
2018-01-16T05:13:40.975Z,45.53
2018-01-16T05:16:08.522Z,42.22
2018-01-16T05:18:36.075Z,51.80
2018-01-16T05:21:03.618Z,52.38
2018-01-16T05:23:31.290Z,42.47
2018-01-16T05:25:58.825Z,53.45
2018-01-16T05:28:26.366Z,53.10
2018-01-16T05:30:54.017Z,47.33
2018-01-16T05:33:21.563Z,47.70
2018-01-16T05:35:49.186Z,45.63
2018-01-16T05:38:16.875Z,46.70
2018-01-16T05:40:44.588Z,56.90
2018-01-16T05:43:12.171Z,58.33
2018-01-16T05:45:39.774Z,57.80
2018-01-16T05:48:07.361Z,73.50
2018-01-16T05:50:34.897Z,54.35
2018-01-16T05:53:02.444Z,50.83
2018-01-16T05:55:30.009Z,54.13
2018-01-16T05:57:57.606Z,48.92
2018-01-16T06:00:25.336Z,74.95
2018-01-16T06:02:52.971Z,52.00
2018-01-16T06:05:20.514Z,58.67
2018-01-16T06:07:48.062Z,54.10
2018-01-16T06:10:15.612Z,40.83
2018-01-16T06:12:43.417Z,46.90
2018-01-16T06:15:10.957Z,44.83
2018-01-16T06:17:38.506Z,39.67
2018-01-16T06:20:06.056Z,44.17
2018-01-16T06:22:33.678Z,41.75
2018-01-16T06:25:01.411Z,41.45
2018-01-16T06:27:29.124Z,41.83
2018-01-16T06:29:56.741Z,42.85
2018-01-16T06:32:24.461Z,41.40
2018-01-16T06:34:52.010Z,43.22
2018-01-16T06:37:19.661Z,41.55
2018-01-16T06:39:47.305Z,43.97
2018-01-16T06:42:14.848Z,45.85
2018-01-16T06:44:42.411Z,41.78
2018-01-16T06:47:09.964Z,47.70
2018-01-16T06:49:37.550Z,58.10
2018-01-16T06:52:05.094Z,53.70
2018-01-16T06:54:32.705Z,43.38
2018-01-16T06:57:00.258Z,40.50
2018-01-16T06:59:27.794Z,50.25
2018-01-16T07:01:56.217Z,58.72
2018-01-16T07:04:23.895Z,61.37
2018-01-16T07:06:51.611Z,65.18
2018-01-16T07:09:19.166Z,63.75
2018-01-16T07:11:46.709Z,64.47
2018-01-16T07:14:14.472Z,47.62
2018-01-16T07:16:42.182Z,34.70
2018-01-16T07:19:09.907Z,40.75
2018-01-16T07:21:37.462Z,42.03
2018-01-16T07:24:05.046Z,34.88
2018-01-16T07:26:32.746Z,37.95
2018-01-16T07:29:00.375Z,38.05
2018-01-16T07:31:27.926Z,39.00
2018-01-16T07:33:55.523Z,38.55
2018-01-16T07:36:23.071Z,40.70
2018-01-16T07:38:50.722Z,41.28
2018-01-16T07:41:18.264Z,44.72
2018-01-16T07:43:45.834Z,61.65
2018-01-16T07:46:13.498Z,58.67
2018-01-16T07:48:41.058Z,45.83
2018-01-16T07:51:08.682Z,45.67
2018-01-16T07:53:36.349Z,39.95
2018-01-16T07:56:04.075Z,57.75
2018-01-16T07:58:31.629Z,51.90
2018-01-16T08:00:59.404Z,51.40
2018-01-16T08:03:27.000Z,44.60
2018-01-16T08:05:54.573Z,53.30
2018-01-16T08:08:22.117Z,45.90
2018-01-16T08:10:49.695Z,43.97
2018-01-16T08:13:17.282Z,45.67
2018-01-16T08:15:45.112Z,48.03
2018-01-16T08:18:12.657Z,46.53
2018-01-16T08:20:40.216Z,39.08
2018-01-16T08:23:08.089Z,42.13
2018-01-16T08:25:35.624Z,35.97
2018-01-16T08:28:03.391Z,41.50
2018-01-16T08:30:30.970Z,31.53
2018-01-16T08:32:58.509Z,28.27
2018-01-16T08:35:26.195Z,26.10
2018-01-16T08:37:53.788Z,27.50
2018-01-16T08:40:21.381Z,36.63
2018-01-16T08:42:49.147Z,29.60
2018-01-16T08:45:16.697Z,30.57
2018-01-16T08:47:44.273Z,53.17
2018-01-16T08:50:11.818Z,33.53
2018-01-16T08:52:39.521Z,32.70
2018-01-16T08:55:07.054Z,36.60
2018-01-16T08:57:34.853Z,40.97
2018-01-16T09:00:02.397Z,37.60
2018-01-16T09:02:29.938Z,33.03
2018-01-16T09:04:57.563Z,40.87
2018-01-16T09:07:25.324Z,38.90
2018-01-16T09:09:52.869Z,63.17
2018-01-16T09:12:20.421Z,34.93
2018-01-16T09:14:48.146Z,36.97
2018-01-16T09:17:15.730Z,36.20
2018-01-16T09:19:43.334Z,28.87
2018-01-16T09:22:11.132Z,35.33
2018-01-16T09:24:38.696Z,31.30
2018-01-16T09:27:06.429Z,33.87
2018-01-16T09:29:34.014Z,37.77
2018-01-16T09:32:01.894Z,34.50
2018-01-16T09:34:29.430Z,31.33
2018-01-16T09:36:56.994Z,31.13
2018-01-16T09:39:24.658Z,32.43
2018-01-16T09:41:52.301Z,31.83
2018-01-16T09:44:19.838Z,37.33
2018-01-16T09:46:47.378Z,33.10
2018-01-16T09:49:14.927Z,31.77
2018-01-16T09:51:42.469Z,34.30
2018-01-16T09:54:10.063Z,37.57
2018-01-16T09:56:37.594Z,46.70
2018-01-16T09:59:05.198Z,43.03
2018-01-16T10:01:32.916Z,48.10
2018-01-16T10:04:00.462Z,45.73
2018-01-16T10:06:28.049Z,66.67
2018-01-16T10:08:55.831Z,53.73
2018-01-16T10:11:23.386Z,44.27
2018-01-16T10:13:51.210Z,40.87
2018-01-16T10:16:18.751Z,45.10
2018-01-16T10:18:46.334Z,37.23
2018-01-16T10:21:13.950Z,36.97
2018-01-16T10:23:41.480Z,34.57
2018-01-16T10:26:09.088Z,37.60
2018-01-16T10:28:36.810Z,34.03
2018-01-16T10:31:04.535Z,31.97
2018-01-16T10:33:32.151Z,31.70
2018-01-16T10:35:59.866Z,29.93
2018-01-16T10:38:27.444Z,30.93
2018-01-16T10:40:55.163Z,34.33
2018-01-16T10:43:22.823Z,31.80
2018-01-16T10:45:50.543Z,45.90
2018-01-16T10:48:18.095Z,36.30
2018-01-16T10:50:45.876Z,39.43
2018-01-16T10:53:13.435Z,35.80
2018-01-16T10:55:41.027Z,37.00
2018-01-16T10:58:08.574Z,46.23
2018-01-16T11:00:36.114Z,39.80
2018-01-16T11:03:03.863Z,43.67
2018-01-16T11:05:31.399Z,44.97
2018-01-16T11:07:58.973Z,39.70
2018-01-16T11:10:26.617Z,34.10
2018-01-16T11:12:54.206Z,33.33
2018-01-16T11:15:21.742Z,36.67
2018-01-16T11:17:49.294Z,35.67
2018-01-16T11:20:16.874Z,41.37
2018-01-16T11:22:44.518Z,35.27
2018-01-16T11:25:12.111Z,85.23
2018-01-16T11:27:39.670Z,34.17
2018-01-16T11:30:07.256Z,37.40
2018-01-16T11:32:34.859Z,86.20
2018-01-16T11:35:02.402Z,77.17
2018-01-16T11:37:30.214Z,59.60
2018-01-16T11:39:57.930Z,59.10
2018-01-16T11:42:25.496Z,43.93
2018-01-16T11:44:53.168Z,40.67
2018-01-16T11:47:20.705Z,75.13
2018-01-16T11:49:48.422Z,40.20
2018-01-16T11:52:15.966Z,113.03
2018-01-16T11:54:43.639Z,48.00
2018-01-16T11:57:11.225Z,42.40
2018-01-16T11:59:38.887Z,50.27
2018-01-16T12:02:06.507Z,47.23
2018-01-16T12:04:34.090Z,46.40
2018-01-16T12:07:01.676Z,46.90
2018-01-16T12:09:29.289Z,53.57
2018-01-16T12:11:56.964Z,42.57
2018-01-16T12:14:24.670Z,44.63
2018-01-16T12:16:52.303Z,49.10
2018-01-16T12:19:19.858Z,51.53
2018-01-16T12:21:47.434Z,50.37
2018-01-16T12:24:14.966Z,42.90
2018-01-16T12:26:42.593Z,45.23
2018-01-16T12:29:10.138Z,41.60
2018-01-16T12:31:37.686Z,52.13
2018-01-16T12:34:05.348Z,41.83
2018-01-16T12:36:32.895Z,43.77
2018-01-16T12:39:00.563Z,45.43
2018-01-16T12:41:28.115Z,44.50
2018-01-16T12:43:55.683Z,49.57
2018-01-16T12:46:23.270Z,48.13
2018-01-16T12:48:50.932Z,59.23
2018-01-16T12:51:18.477Z,52.23
2018-01-16T12:53:46.170Z,56.03
2018-01-16T12:56:13.703Z,60.70
2018-01-16T12:58:41.399Z,64.67
2018-01-16T13:01:08.930Z,50.03
2018-01-16T13:03:36.463Z,52.57
2018-01-16T13:06:04.011Z,55.60
2018-01-16T13:08:31.602Z,95.00
2018-01-16T13:10:59.229Z,433.70
2018-01-16T13:13:26.774Z,53.93
2018-01-16T13:15:54.327Z,55.67
2018-01-16T13:18:21.882Z,82.60
2018-01-16T13:20:49.453Z,240.27
2018-01-16T13:23:17.034Z,79.13
2018-01-16T13:25:44.581Z,196.43
2018-01-16T13:28:12.126Z,276.27
2018-01-16T13:30:39.707Z,67.90
2018-01-16T13:33:07.346Z,60.20
2018-01-16T13:35:35.066Z,57.73
2018-01-16T13:38:02.696Z,72.63
2018-01-16T13:40:30.403Z,68.17
2018-01-16T13:42:58.011Z,63.67
2018-01-16T13:45:25.630Z,56.17
2018-01-16T13:47:53.212Z,53.20
2018-01-16T13:50:20.972Z,54.00
2018-01-16T13:52:48.504Z,64.93
2018-01-16T13:55:16.050Z,53.87
2018-01-16T13:57:43.603Z,52.60
2018-01-16T14:00:11.206Z,54.37
2018-01-16T14:02:38.746Z,63.03
2018-01-16T14:05:06.436Z,79.73
2018-01-16T14:07:33.986Z,63.87
2018-01-16T14:10:01.581Z,51.30
2018-01-16T14:12:29.186Z,50.07
2018-01-16T14:14:56.710Z,48.83
2018-01-16T14:17:24.307Z,51.63
2018-01-16T14:19:52.085Z,42.13
2018-01-16T14:22:19.618Z,53.03
2018-01-16T14:24:47.222Z,55.73
2018-01-16T14:27:14.795Z,61.37
2018-01-16T14:29:42.343Z,52.97
2018-01-16T14:32:09.902Z,57.53
2018-01-16T14:34:37.430Z,59.10
2018-01-16T14:37:05.213Z,63.23
2018-01-16T14:39:32.818Z,59.20
2018-01-16T14:42:00.380Z,77.47
2018-01-16T14:44:28.001Z,282.80
2018-01-16T14:46:55.538Z,131.00
2018-01-16T14:49:23.198Z,93.97
2018-01-16T14:51:50.725Z,89.43
2018-01-16T14:54:18.274Z,74.60
2018-01-16T14:56:45.841Z,64.90
2018-01-16T14:59:13.406Z,62.27
2018-01-16T15:01:40.989Z,500.03
2018-01-16T15:04:08.546Z,73.70
2018-01-16T15:06:36.162Z,130.33
2018-01-16T15:09:03.829Z,84.97
2018-01-16T15:11:31.361Z,101.60
2018-01-16T15:13:58.964Z,177.50
2018-01-16T15:16:26.600Z,118.00
2018-01-16T15:18:54.414Z,156.13
2018-01-16T15:21:22.231Z,160.00
2018-01-16T15:23:49.776Z,192.60
2018-01-16T15:26:17.317Z,139.23
2018-01-16T15:28:44.867Z,167.10
2018-01-16T15:31:12.413Z,196.73
2018-01-16T15:33:40.128Z,173.17
2018-01-16T15:36:07.732Z,161.70
2018-01-16T15:38:35.349Z,134.40
2018-01-16T15:41:02.885Z,147.47
2018-01-16T15:43:30.622Z,115.93
2018-01-16T15:45:58.161Z,115.40
2018-01-16T15:48:25.831Z,120.95
2018-01-16T15:50:53.388Z,145.60
2018-01-16T15:53:21.005Z,134.35
2018-01-16T15:55:48.574Z,123.62
2018-01-16T15:58:16.202Z,175.32
2018-01-16T16:00:43.918Z,204.10
2018-01-16T16:03:11.662Z,177.05
2018-01-16T16:05:39.341Z,184.07
2018-01-16T16:08:06.917Z,306.95
2018-01-16T16:10:34.481Z,267.73
2018-01-16T16:13:02.198Z,251.57
2018-01-16T16:15:29.762Z,284.73
2018-01-16T16:17:57.330Z,264.50
2018-01-16T16:20:24.948Z,242.43
2018-01-16T16:22:52.775Z,193.13
2018-01-16T16:25:20.323Z,180.65
2018-01-16T16:27:48.010Z,191.70
2018-01-16T16:30:15.591Z,202.27
2018-01-16T16:32:43.146Z,150.70
2018-01-16T16:35:10.736Z,147.40
2018-01-16T16:37:38.457Z,160.32
2018-01-16T16:40:06.082Z,140.55
2018-01-16T16:42:33.727Z,144.07
2018-01-16T16:45:01.282Z,148.82
2018-01-16T16:47:28.851Z,172.77
2018-01-16T16:49:56.571Z,163.15
2018-01-16T16:52:25.318Z,160.15
2018-01-16T16:54:52.910Z,137.52
2018-01-16T16:57:20.469Z,131.55
2018-01-16T16:59:48.103Z,245.98
2018-01-16T17:02:15.664Z,168.50
2018-01-16T17:04:43.261Z,125.07
2018-01-16T17:07:10.941Z,153.38
2018-01-16T17:09:38.722Z,190.12
2018-01-16T17:12:06.294Z,275.87
2018-01-16T17:14:33.846Z,141.70
2018-01-16T17:17:01.672Z,244.65
2018-01-16T17:19:29.230Z,236.93
2018-01-16T17:21:56.900Z,181.15
2018-01-16T17:24:24.628Z,138.48
2018-01-16T17:26:52.230Z,162.45
2018-01-16T17:29:19.836Z,170.50
2018-01-16T17:31:47.454Z,174.82
2018-01-16T17:34:15.010Z,169.52
2018-01-16T17:36:42.579Z,196.40
2018-01-16T17:39:10.215Z,232.02
2018-01-16T17:41:37.863Z,277.92
2018-01-16T17:44:05.438Z,330.92
2018-01-16T17:46:33.088Z,334.85
2018-01-16T17:49:00.674Z,192.10
2018-01-16T17:51:28.302Z,145.43
2018-01-16T17:53:55.942Z,127.38
2018-01-16T17:56:23.543Z,123.40
2018-01-16T17:58:51.166Z,174.10
2018-01-16T18:01:18.994Z,193.62
2018-01-16T18:03:46.604Z,186.10
2018-01-16T18:06:14.431Z,363.77
2018-01-16T18:08:42.198Z,321.13
2018-01-16T18:11:09.822Z,214.15
2018-01-16T18:13:37.642Z,191.48
2018-01-16T18:16:05.205Z,166.80
2018-01-16T18:18:32.763Z,215.07
2018-01-16T18:21:00.402Z,189.60
2018-01-16T18:23:27.947Z,168.65
2018-01-16T18:25:55.568Z,228.40
2018-01-16T18:28:23.118Z,172.48
2018-01-16T18:30:50.719Z,112.40
2018-01-16T18:33:18.627Z,243.98
2018-01-16T18:35:46.307Z,175.85
2018-01-16T18:38:13.878Z,371.83
2018-01-16T18:40:41.492Z,262.80
2018-01-16T18:43:09.054Z,173.10
2018-01-16T18:45:36.638Z,148.73
2018-01-16T18:48:04.205Z,166.93
2018-01-16T18:50:31.762Z,171.48
2018-01-16T18:52:59.432Z,171.00
2018-01-16T18:55:26.994Z,177.57
2018-01-16T18:57:54.583Z,179.25
2018-01-16T19:00:22.230Z,158.32
2018-01-16T19:02:49.812Z,230.25
2018-01-16T19:05:17.407Z,186.68
2018-01-16T19:07:44.973Z,159.32
2018-01-16T19:10:12.534Z,150.27
2018-01-16T19:12:40.161Z,151.68
2018-01-16T19:15:07.859Z,169.77
2018-01-16T19:17:35.498Z,184.20
2018-01-16T19:20:03.055Z,239.77
2018-01-16T19:22:30.605Z,193.48
2018-01-16T19:24:58.202Z,200.20
2018-01-16T19:27:25.758Z,204.05
2018-01-16T19:29:53.393Z,195.85
2018-01-16T19:32:21.019Z,228.25
2018-01-16T19:34:48.741Z,224.95
2018-01-16T19:37:16.345Z,210.75
2018-01-16T19:39:43.920Z,216.45
2018-01-16T19:42:11.661Z,212.50
2018-01-16T19:44:39.234Z,212.05
2018-01-16T19:47:06.840Z,194.00
2018-01-16T19:49:34.551Z,203.95
2018-01-16T19:52:02.234Z,178.50
2018-01-16T19:54:29.814Z,177.80
2018-01-16T19:56:57.503Z,169.30
2018-01-16T19:59:25.152Z,152.50
2018-01-16T20:01:52.702Z,148.73
2018-01-16T20:04:20.270Z,133.35
2018-01-16T20:06:47.850Z,132.45
2018-01-16T20:09:15.417Z,132.18
2018-01-16T20:11:43.873Z,130.68
2018-01-16T20:14:11.595Z,138.62
2018-01-16T20:16:39.250Z,145.60
2018-01-16T20:19:06.814Z,149.62
2018-01-16T20:21:34.371Z,150.48
2018-01-16T20:24:01.938Z,180.80
2018-01-16T20:26:29.719Z,174.10
2018-01-16T20:28:57.434Z,176.65
2018-01-16T20:31:24.998Z,207.90
2018-01-16T20:33:52.549Z,210.32
2018-01-16T20:36:20.391Z,217.27
2018-01-16T20:38:48.106Z,193.37
2018-01-16T20:41:15.824Z,197.43
2018-01-16T20:43:43.389Z,385.33
2018-01-16T20:46:11.151Z,227.87
2018-01-16T20:48:38.786Z,211.43
2018-01-16T20:51:06.358Z,163.37
2018-01-16T20:53:34.114Z,167.07
2018-01-16T20:56:01.746Z,180.57
2018-01-16T20:58:29.551Z,198.87
2018-01-16T21:00:57.102Z,204.68
2018-01-16T21:03:24.890Z,209.05
2018-01-16T21:05:52.703Z,216.30
2018-01-16T21:08:20.286Z,181.48
2018-01-16T21:10:48.040Z,176.30
2018-01-16T21:13:15.606Z,169.20
2018-01-16T21:15:43.275Z,176.23
2018-01-16T21:18:10.834Z,192.68
2018-01-16T21:20:38.509Z,107.10
2018-01-16T21:23:06.120Z,123.07
2018-01-16T21:25:33.748Z,99.53
2018-01-16T21:28:01.526Z,108.63
2018-01-16T21:30:29.080Z,140.27
2018-01-16T21:32:56.690Z,155.70
2018-01-16T21:35:24.245Z,154.95
2018-01-16T21:37:51.907Z,143.90
2018-01-16T21:40:19.510Z,135.85
2018-01-16T21:42:47.066Z,181.15
2018-01-16T21:45:14.893Z,128.90
2018-01-16T21:47:42.438Z,126.65
2018-01-16T21:50:10.226Z,126.35
2018-01-16T21:52:37.835Z,116.85
2018-01-16T21:55:05.434Z,130.82
2018-01-16T21:57:33.144Z,113.12
2018-01-16T22:00:00.806Z,117.13
2018-01-16T22:02:28.551Z,124.62
2018-01-16T22:04:56.101Z,121.60
2018-01-16T22:07:23.654Z,122.70
2018-01-16T22:09:51.279Z,146.00
2018-01-16T22:12:19.087Z,137.07
2018-01-16T22:14:46.710Z,154.60
2018-01-16T22:17:14.318Z,140.90
2018-01-16T22:19:41.886Z,130.40
2018-01-16T22:22:09.434Z,130.02
2018-01-16T22:24:37.005Z,128.87
2018-01-16T22:27:04.569Z,118.75
2018-01-16T22:29:32.311Z,84.32
2018-01-16T22:31:59.910Z,78.15
2018-01-16T22:34:27.647Z,73.72
2018-01-16T22:36:55.380Z,66.82
2018-01-16T22:39:23.215Z,71.72
2018-01-16T22:41:50.792Z,74.12
2018-01-16T22:44:18.330Z,79.60
2018-01-16T22:46:46.137Z,76.90
2018-01-16T22:49:13.856Z,71.68
2018-01-16T22:51:41.447Z,84.60
2018-01-16T22:54:09.096Z,77.05
2018-01-16T22:56:36.701Z,80.35
2018-01-16T22:59:04.431Z,79.90
2018-01-16T23:01:31.986Z,86.50
2018-01-16T23:03:59.763Z,83.75
2018-01-16T23:06:27.306Z,71.93
2018-01-16T23:08:54.846Z,74.32
2018-01-16T23:11:22.518Z,71.62
2018-01-16T23:13:50.062Z,74.40
2018-01-16T23:16:17.610Z,73.70
2018-01-16T23:18:45.149Z,71.12
2018-01-16T23:21:12.726Z,78.57
2018-01-16T23:23:40.265Z,83.10
2018-01-16T23:26:07.818Z,82.07
2018-01-16T23:28:35.541Z,84.45
2018-01-16T23:31:03.104Z,78.15
2018-01-16T23:33:30.876Z,80.68
2018-01-16T23:35:58.469Z,82.82
2018-01-16T23:38:26.102Z,78.05
2018-01-16T23:40:53.656Z,69.60
2018-01-16T23:43:21.239Z,99.05
2018-01-16T23:45:48.818Z,86.55
2018-01-16T23:48:16.374Z,79.53
2018-01-16T23:50:43.954Z,81.60
2018-01-16T23:53:11.617Z,72.90
2018-01-16T23:55:39.198Z,72.07
2018-01-16T23:58:06.743Z,79.90
